Time;durP1;ratioP1;P1;durP2;ratioP2;P2;SDS_P1;SDS_P2;PMS_P1;PMS_P2;Temp;Humidity;BMP_temperature;BMP_pressure;BME280_temperature;BME280_humidity;BME280_pressure;Samples;Min_cycle;Max_cycle;Signal;HPM_P1;HPM_P2
2021/12/31 00:00:09;;;;;;;1.33;1.20;;;15.60;90.80;;;;;;2009680;28;20524;-80
2021/12/31 00:01:08;;;;;;;3.80;1.80;;;15.60;91.10;;;;;;2010135;28;20268;-80
2021/12/31 00:02:07;;;;;;;2.40;1.53;;;15.60;90.70;;;;;;2009915;28;20181;-80
2021/12/31 00:03:05;;;;;;;1.45;1.20;;;15.60;90.60;;;;;;2009405;28;20173;-81
2021/12/31 00:04:04;;;;;;;2.37;1.40;;;15.60;90.60;;;;;;2009992;28;20169;-82
2021/12/31 00:05:04;;;;;;;1.40;1.30;;;15.50;91.30;;;;;;2009645;28;20323;-80
2021/12/31 00:06:02;;;;;;;2.28;1.42;;;15.60;90.70;;;;;;2007184;28;20395;-80
2021/12/31 00:07:01;;;;;;;1.97;1.33;;;15.60;90.80;;;;;;2007063;28;20166;-79
2021/12/31 00:07:59;;;;;;;1.67;1.30;;;15.60;91.00;;;;;;2006715;28;20170;-79
2021/12/31 00:08:58;;;;;;;1.90;1.63;;;15.60;91.30;;;;;;2006228;28;20166;-79
2021/12/31 00:10:00;;;;;;;1.37;1.27;;;15.60;90.50;;;;;;2007229;28;20165;-80
2021/12/31 00:10:59;;;;;;;1.67;1.50;;;15.60;90.90;;;;;;2006108;28;20625;-81
2021/12/31 00:11:58;;;;;;;2.17;1.35;;;15.60;91.20;;;;;;2005277;28;20701;-81
2021/12/31 00:12:57;;;;;;;1.73;1.40;;;15.50;91.60;;;;;;2005415;28;20196;-79
2021/12/31 00:13:55;;;;;;;2.23;1.50;;;15.50;91.30;;;;;;2005606;28;20177;-80
2021/12/31 00:14:54;;;;;;;1.53;1.43;;;15.50;91.50;;;;;;2006028;28;20180;-80
2021/12/31 00:15:53;;;;;;;1.70;1.60;;;15.60;92.00;;;;;;2006075;28;20188;-80
2021/12/31 00:16:51;;;;;;;1.80;1.40;;;15.60;91.40;;;;;;2006015;28;20915;-80
2021/12/31 00:17:50;;;;;;;1.30;1.20;;;15.60;90.90;;;;;;2006012;28;20479;-78
2021/12/31 00:18:50;;;;;;;2.17;1.60;;;15.50;92.60;;;;;;2005918;28;20325;-80
2021/12/31 00:19:58;;;;;;;1.90;1.70;;;15.50;92.00;;;;;;2006000;28;20173;-80
2021/12/31 00:20:56;;;;;;;2.80;1.50;;;15.50;90.90;;;;;;2006066;28;20158;-80
2021/12/31 00:21:55;;;;;;;1.60;1.40;;;15.50;91.00;;;;;;2006232;28;20181;-80
2021/12/31 00:23:01;;;;;;;2.40;1.60;;;15.60;90.80;;;;;;2006055;28;20177;-80
2021/12/31 00:23:59;;;;;;;2.95;1.50;;;15.50;91.90;;;;;;2006207;28;20395;-79
2021/12/31 00:24:59;;;;;;;1.83;1.57;;;15.60;90.50;;;;;;2006049;28;20204;-80
2021/12/31 00:25:58;;;;;;;1.85;1.50;;;15.50;91.00;;;;;;2006020;28;20176;-79
2021/12/31 00:26:56;;;;;;;1.40;1.30;;;15.50;91.30;;;;;;2006017;28;20231;-79
2021/12/31 00:27:56;;;;;;;1.30;1.20;;;15.60;91.50;;;;;;2006092;28;20208;-79
2021/12/31 00:28:55;;;;;;;2.50;1.50;;;15.50;91.00;;;;;;2006278;28;20648;-79
2021/12/31 00:29:53;;;;;;;1.70;1.30;;;15.50;91.60;;;;;;2006215;28;20334;-79
2021/12/31 00:30:54;;;;;;;1.60;1.50;;;15.60;91.30;;;;;;2005611;28;20182;-79
2021/12/31 00:31:54;;;;;;;3.95;1.35;;;15.60;91.20;;;;;;2005465;28;20598;-79
2021/12/31 00:32:53;;;;;;;1.80;1.25;;;15.60;92.30;;;;;;2006000;28;20173;-79
2021/12/31 00:33:51;;;;;;;2.17;1.50;;;15.60;91.00;;;;;;2006193;28;20169;-80
2021/12/31 00:34:51;;;;;;;2.10;1.50;;;15.50;90.80;;;;;;2006384;28;20175;-80
2021/12/31 00:35:50;;;;;;;1.80;1.60;;;15.50;90.20;;;;;;2005477;28;20192;-80
2021/12/31 00:36:48;;;;;;;1.87;1.60;;;15.50;91.10;;;;;;2005569;28;20247;-80
2021/12/31 00:37:47;;;;;;;3.10;1.60;;;15.60;92.30;;;;;;2006570;28;20415;-80
2021/12/31 00:38:46;;;;;;;1.70;1.60;;;15.60;90.80;;;;;;2006251;28;20184;-80
2021/12/31 00:39:44;;;;;;;3.30;1.80;;;15.60;91.50;;;;;;2005490;28;20707;-80
2021/12/31 00:40:44;;;;;;;1.23;1.13;;;15.60;91.20;;;;;;2005703;28;20247;-80
2021/12/31 00:41:43;;;;;;;1.95;1.55;;;15.60;92.20;;;;;;2004872;28;20193;-80
2021/12/31 00:42:42;;;;;;;1.70;1.30;;;15.60;92.10;;;;;;1997818;28;20186;-80
2021/12/31 00:43:40;;;;;;;1.33;1.20;;;15.50;91.90;;;;;;2005074;28;20177;-80
2021/12/31 00:44:39;;;;;;;2.77;1.60;;;15.50;91.70;;;;;;2007420;28;20181;-80
2021/12/31 00:45:40;;;;;;;1.50;1.30;;;15.50;91.00;;;;;;2006635;28;20173;-80
2021/12/31 00:46:39;;;;;;;2.40;1.60;;;15.50;91.50;;;;;;2007316;28;20268;-80
2021/12/31 00:47:38;;;;;;;1.93;1.47;;;15.60;91.30;;;;;;2006852;28;20216;-81
2021/12/31 00:48:37;;;;;;;1.48;1.38;;;15.60;91.80;;;;;;2009603;28;20407;-80
2021/12/31 00:49:35;;;;;;;2.37;1.63;;;15.60;92.00;;;;;;2007375;28;20589;-80
2021/12/31 00:50:35;;;;;;;1.63;1.43;;;15.60;91.70;;;;;;2009507;28;20519;-80
2021/12/31 00:51:33;;;;;;;1.58;1.42;;;15.60;92.40;;;;;;2008128;28;20259;-80
2021/12/31 00:52:32;;;;;;;2.23;1.50;;;15.50;91.30;;;;;;2006277;28;20235;-80
2021/12/31 00:53:31;;;;;;;2.27;1.40;;;15.50;92.80;;;;;;2007615;28;20546;-80
2021/12/31 00:54:29;;;;;;;1.67;1.47;;;15.50;91.50;;;;;;2007829;28;20176;-80
2021/12/31 00:55:28;;;;;;;1.30;1.20;;;15.50;91.30;;;;;;2009056;28;20189;-80
2021/12/31 00:56:26;;;;;;;1.43;1.30;;;15.50;91.50;;;;;;2009506;28;20197;-80
2021/12/31 00:57:25;;;;;;;1.70;1.50;;;15.60;91.10;;;;;;2009083;28;20243;-80
2021/12/31 00:58:25;;;;;;;1.60;1.30;;;15.50;91.10;;;;;;2010670;28;20196;-80
2021/12/31 00:59:24;;;;;;;2.20;1.70;;;15.60;91.50;;;;;;2007200;28;20581;-79
2021/12/31 01:00:23;;;;;;;2.47;1.80;;;15.60;91.40;;;;;;2010524;28;20185;-80
2021/12/31 01:01:25;;;;;;;1.90;1.50;;;15.50;91.20;;;;;;2008866;28;20219;-79
2021/12/31 01:02:27;;;;;;;2.45;1.48;;;15.60;91.60;;;;;;2006173;28;20180;-80
2021/12/31 01:03:25;;;;;;;2.20;1.70;;;15.60;91.50;;;;;;2012080;28;20177;-80
2021/12/31 01:04:25;;;;;;;1.67;1.40;;;15.50;90.90;;;;;;2011115;28;20212;-80
2021/12/31 01:05:23;;;;;;;1.95;1.30;;;15.50;91.40;;;;;;2001367;28;20185;-80
2021/12/31 01:06:22;;;;;;;3.90;1.60;;;15.60;91.50;;;;;;1994909;28;20272;-81
2021/12/31 01:07:20;;;;;;;2.30;1.70;;;15.60;91.50;;;;;;2010873;28;20197;-81
2021/12/31 01:08:19;;;;;;;2.23;1.73;;;15.60;91.40;;;;;;2018695;28;20176;-81
2021/12/31 01:09:17;;;;;;;1.57;1.23;;;15.50;91.00;;;;;;2017382;28;20181;-81
2021/12/31 01:10:18;;;;;;;1.43;1.30;;;15.50;91.40;;;;;;2012980;28;20211;-79
2021/12/31 01:11:17;;;;;;;1.95;1.40;;;15.50;91.80;;;;;;2009837;28;20181;-79
2021/12/31 01:12:16;;;;;;;1.47;1.30;;;15.60;91.00;;;;;;2008881;28;20177;-78
2021/12/31 01:13:24;;;;;;;1.77;1.20;;;15.50;91.40;;;;;;2005938;28;20531;-79
2021/12/31 01:14:37;;;;;;;1.60;1.50;;;15.60;91.50;;;;;;2012894;28;20403;-80
2021/12/31 01:15:40;;;;;;;1.70;1.40;;;15.50;91.70;;;;;;2004973;28;20649;-79
2021/12/31 01:16:45;;;;;;;1.65;1.27;;;15.50;91.30;;;;;;2004969;28;20201;-79
2021/12/31 01:19:53;;;;;;;1.63;1.53;;;15.70;91.10;;;;;;2005105;28;20268;-80
2021/12/31 01:20:51;;;;;;;2.00;1.47;;;15.60;91.30;;;;;;2005562;28;20177;-80
2021/12/31 01:21:50;;;;;;;1.40;1.27;;;15.50;91.40;;;;;;2005100;28;20246;-80
2021/12/31 01:22:49;;;;;;;1.77;1.60;;;15.60;91.30;;;;;;2005388;28;20177;-80
2021/12/31 01:23:49;;;;;;;1.90;1.30;;;15.60;92.20;;;;;;2005576;28;20170;-79
2021/12/31 01:24:47;;;;;;;1.73;1.30;;;15.60;92.10;;;;;;2005401;28;20177;-80
2021/12/31 01:25:46;;;;;;;1.50;1.40;;;15.50;91.40;;;;;;2005589;28;20177;-80
2021/12/31 01:26:45;;;;;;;1.47;1.33;;;15.60;91.10;;;;;;2005468;28;20197;-80
2021/12/31 01:27:44;;;;;;;1.40;1.17;;;15.60;92.40;;;;;;2005441;28;20671;-79
2021/12/31 01:28:43;;;;;;;1.60;1.30;;;15.60;91.10;;;;;;2005777;28;20181;-80
2021/12/31 01:29:42;;;;;;;1.75;1.40;;;15.70;92.10;;;;;;2005411;28;20412;-81
2021/12/31 01:30:41;;;;;;;1.53;1.33;;;15.60;92.20;;;;;;2005526;28;20181;-80
2021/12/31 01:31:39;;;;;;;1.50;1.40;;;15.50;91.80;;;;;;2005455;28;20193;-80
2021/12/31 01:32:38;;;;;;;1.40;1.17;;;15.60;91.60;;;;;;2005447;28;20357;-79
2021/12/31 01:33:37;;;;;;;1.70;1.30;;;15.60;92.40;;;;;;2004782;28;20222;-80
2021/12/31 01:34:36;;;;;;;1.37;1.27;;;15.60;91.40;;;;;;1996934;28;20554;-80
2021/12/31 01:35:35;;;;;;;1.98;1.42;;;15.60;91.90;;;;;;2004593;28;20638;-80
2021/12/31 01:36:34;;;;;;;1.40;1.27;;;15.60;92.10;;;;;;2005172;28;20267;-79
2021/12/31 01:37:32;;;;;;;1.30;1.20;;;15.60;92.20;;;;;;2005523;28;20275;-80
2021/12/31 01:38:31;;;;;;;2.47;1.37;;;15.60;92.50;;;;;;2005483;28;20310;-80
2021/12/31 01:39:30;;;;;;;1.43;1.20;;;15.60;91.50;;;;;;2005465;28;20184;-80
2021/12/31 01:40:28;;;;;;;2.90;1.90;;;15.60;92.10;;;;;;2005559;28;20169;-80
2021/12/31 01:41:27;;;;;;;1.30;1.20;;;15.60;92.20;;;;;;2005435;28;20436;-80
2021/12/31 01:42:33;;;;;;;2.00;1.50;;;15.60;92.00;;;;;;2004804;28;20624;-80
2021/12/31 01:43:32;;;;;;;1.20;1.10;;;15.60;91.70;;;;;;2004792;28;20166;-80
2021/12/31 01:44:37;;;;;;;2.30;1.43;;;15.60;91.30;;;;;;2005334;28;20184;-80
2021/12/31 01:45:43;;;;;;;0.80;0.80;;;15.60;91.90;;;;;;2004821;28;20181;-80
2021/12/31 01:46:55;;;;;;;2.85;1.60;;;15.70;92.20;;;;;;2004971;28;20679;-80
2021/12/31 01:49:59;;;;;;;2.75;1.65;;;15.60;91.90;;;;;;2005615;28;20636;-80
2021/12/31 01:50:58;;;;;;;2.00;1.25;;;15.60;91.90;;;;;;2005438;28;20195;-80
2021/12/31 01:51:57;;;;;;;1.55;1.30;;;15.60;92.80;;;;;;2005399;28;20161;-80
2021/12/31 01:52:56;;;;;;;1.90;1.57;;;15.60;92.00;;;;;;2005474;28;20176;-80
2021/12/31 01:53:55;;;;;;;1.63;1.30;;;15.70;92.10;;;;;;2005441;28;20173;-80
2021/12/31 01:54:54;;;;;;;1.40;1.23;;;15.60;91.70;;;;;;2005332;28;20181;-80
2021/12/31 01:55:59;;;;;;;2.65;1.20;;;15.60;91.40;;;;;;2005480;28;20248;-80
2021/12/31 01:57:19;;;;;;;1.80;1.52;;;15.60;92.20;;;;;;2005497;28;20185;-80
2021/12/31 01:58:24;;;;;;;1.30;1.20;;;15.70;91.70;;;;;;2004856;28;20199;-81
2021/12/31 01:59:24;;;;;;;1.45;1.30;;;15.70;91.60;;;;;;2004720;28;20601;-81
2021/12/31 02:00:23;;;;;;;1.60;1.50;;;15.60;92.10;;;;;;2004751;28;20177;-80
2021/12/31 02:01:22;;;;;;;1.77;1.33;;;15.60;91.20;;;;;;2005202;28;20177;-81
2021/12/31 02:02:21;;;;;;;2.80;1.63;;;15.60;92.00;;;;;;2005287;28;20396;-81
2021/12/31 02:03:21;;;;;;;1.83;1.23;;;15.60;92.00;;;;;;2005533;28;20180;-81
2021/12/31 02:04:19;;;;;;;1.42;1.30;;;15.60;91.80;;;;;;2005376;28;20169;-80
2021/12/31 02:05:18;;;;;;;1.93;1.40;;;15.60;88.90;;;;;;2005452;28;20655;-80
2021/12/31 02:06:17;;;;;;;1.77;1.27;;;15.60;89.70;;;;;;2005331;28;20274;-80
2021/12/31 02:07:15;;;;;;;1.87;1.30;;;15.60;88.30;;;;;;2005078;28;20227;-81
2021/12/31 02:08:16;;;;;;;2.23;1.27;;;15.60;87.30;;;;;;2004807;28;20713;-81
2021/12/31 02:09:14;;;;;;;1.90;1.45;;;15.70;89.80;;;;;;2004879;28;20265;-80
2021/12/31 02:10:13;;;;;;;1.33;1.23;;;15.60;89.20;;;;;;2005031;28;20188;-81
2021/12/31 02:11:11;;;;;;;2.87;1.40;;;15.60;89.50;;;;;;2005638;28;20256;-81
2021/12/31 02:12:11;;;;;;;1.33;1.23;;;15.60;89.00;;;;;;2005475;28;20276;-81
2021/12/31 02:13:10;;;;;;;1.88;1.50;;;15.60;89.50;;;;;;2005563;28;20243;-81
2021/12/31 02:14:09;;;;;;;1.60;1.40;;;15.60;88.60;;;;;;2005391;28;20524;-80
2021/12/31 02:15:09;;;;;;;1.85;1.55;;;15.60;90.10;;;;;;2004973;28;20495;-80
2021/12/31 02:16:09;;;;;;;1.55;1.30;;;15.60;88.80;;;;;;2004788;28;20212;-81
2021/12/31 02:17:09;;;;;;;2.20;1.42;;;15.60;89.40;;;;;;2005416;28;20640;-81
2021/12/31 02:18:09;;;;;;;1.77;1.40;;;15.60;89.10;;;;;;2005332;28;20283;-81
2021/12/31 02:19:14;;;;;;;1.33;1.23;;;15.60;89.40;;;;;;2004751;28;20327;-81
2021/12/31 02:20:13;;;;;;;2.55;1.45;;;15.60;90.40;;;;;;2004919;28;20249;-81
2021/12/31 02:21:13;;;;;;;2.65;1.70;;;15.60;90.20;;;;;;2005212;28;20176;-81
2021/12/31 02:22:11;;;;;;;1.30;1.20;;;15.60;90.70;;;;;;2005394;28;20169;-80
2021/12/31 02:23:17;;;;;;;2.40;1.30;;;15.60;89.50;;;;;;2004403;28;20173;-81
2021/12/31 02:24:18;;;;;;;2.25;1.50;;;15.60;91.30;;;;;;2004622;28;20188;-81
2021/12/31 02:25:18;;;;;;;1.45;1.25;;;15.60;88.80;;;;;;2005108;28;20219;-79
2021/12/31 02:26:17;;;;;;;2.00;1.38;;;15.60;90.10;;;;;;2005152;28;20176;-80
2021/12/31 02:27:16;;;;;;;2.40;1.60;;;15.70;90.90;;;;;;2005116;28;20181;-80
2021/12/31 02:28:15;;;;;;;1.20;1.10;;;15.60;92.40;;;;;;2012270;28;20442;-80
2021/12/31 02:29:14;;;;;;;1.63;1.27;;;15.60;90.80;;;;;;2012729;28;20689;-80
2021/12/31 02:30:14;;;;;;;1.70;1.23;;;15.70;90.40;;;;;;2005393;28;20247;-80
2021/12/31 02:31:13;;;;;;;1.77;1.30;;;15.60;90.60;;;;;;2004371;28;20689;-80
2021/12/31 02:32:11;;;;;;;1.70;1.60;;;15.60;90.20;;;;;;2004374;28;20255;-80
2021/12/31 02:33:10;;;;;;;1.90;1.37;;;15.60;90.00;;;;;;2004339;28;20252;-80
2021/12/31 02:34:09;;;;;;;2.80;1.70;;;15.70;88.10;;;;;;2004147;28;20177;-80
2021/12/31 02:35:09;;;;;;;2.03;1.40;;;15.60;90.30;;;;;;2004463;28;20684;-80
2021/12/31 02:36:08;;;;;;;1.77;1.15;;;15.60;90.90;;;;;;2004906;28;20544;-80
2021/12/31 02:37:07;;;;;;;1.73;1.40;;;15.60;91.10;;;;;;2004957;28;20173;-81
2021/12/31 02:38:08;;;;;;;2.20;1.27;;;15.60;90.70;;;;;;2005062;28;20668;-80
2021/12/31 02:39:06;;;;;;;1.65;1.15;;;15.60;90.70;;;;;;2005066;28;20173;-80
2021/12/31 02:40:09;;;;;;;1.47;1.37;;;15.60;90.90;;;;;;2005144;28;20173;-79
2021/12/31 02:41:07;;;;;;;1.73;1.05;;;15.60;91.80;;;;;;2004419;28;20173;-80
2021/12/31 02:42:08;;;;;;;1.63;1.23;;;15.60;91.60;;;;;;2004358;28;20173;-80
2021/12/31 02:43:07;;;;;;;2.75;1.55;;;15.60;91.90;;;;;;2005131;28;20165;-80
2021/12/31 02:44:05;;;;;;;2.23;1.30;;;15.70;91.90;;;;;;2004943;28;20165;-80
2021/12/31 02:45:06;;;;;;;1.50;1.30;;;15.70;92.40;;;;;;2004966;28;20208;-80
2021/12/31 02:46:07;;;;;;;1.58;1.38;;;15.60;92.80;;;;;;2004688;28;20181;-81
2021/12/31 02:47:07;;;;;;;1.60;1.40;;;15.60;91.80;;;;;;2004732;28;20208;-80
2021/12/31 02:48:06;;;;;;;1.85;1.60;;;15.60;92.30;;;;;;2004788;28;20188;-80
2021/12/31 02:49:04;;;;;;;3.47;1.40;;;15.60;90.40;;;;;;2004391;28;20596;-80
2021/12/31 02:50:05;;;;;;;1.90;1.70;;;15.60;88.70;;;;;;2004273;28;20169;-80
2021/12/31 02:51:06;;;;;;;1.95;1.50;;;15.70;89.00;;;;;;2004043;28;20165;-81
2021/12/31 02:52:07;;;;;;;1.80;1.25;;;15.60;89.80;;;;;;2007813;28;20169;-81
2021/12/31 02:53:12;;;;;;;1.60;1.40;;;15.70;89.10;;;;;;2008601;28;20185;-81
2021/12/31 02:54:12;;;;;;;2.10;1.42;;;15.70;90.00;;;;;;2008976;28;20181;-81
2021/12/31 02:55:11;;;;;;;1.48;1.38;;;15.60;90.20;;;;;;2008300;28;20169;-81
2021/12/31 02:56:12;;;;;;;3.72;1.17;;;15.80;90.20;;;;;;2008021;28;20227;-81
2021/12/31 02:57:12;;;;;;;2.30;1.75;;;15.60;91.50;;;;;;2008720;28;20496;-81
2021/12/31 02:58:11;;;;;;;1.40;1.20;;;15.60;91.40;;;;;;2007408;28;20177;-81
2021/12/31 02:59:10;;;;;;;1.50;1.20;;;15.60;91.20;;;;;;2005599;28;20575;-81
2021/12/31 03:00:09;;;;;;;1.80;1.50;;;15.60;91.50;;;;;;2005119;28;20628;-81
2021/12/31 03:01:08;;;;;;;1.65;1.30;;;15.60;91.80;;;;;;2005484;28;20185;-81
2021/12/31 03:02:08;;;;;;;1.55;1.25;;;15.60;91.60;;;;;;2005068;28;20162;-80
2021/12/31 03:03:08;;;;;;;1.95;1.15;;;15.70;92.30;;;;;;2005304;28;20181;-81
2021/12/31 03:04:07;;;;;;;1.60;1.30;;;15.70;91.20;;;;;;2005354;28;20176;-80
2021/12/31 03:05:09;;;;;;;1.87;1.37;;;15.70;91.20;;;;;;2005062;28;20238;-80
2021/12/31 03:06:09;;;;;;;1.48;1.35;;;15.70;91.40;;;;;;2005019;28;20180;-80
2021/12/31 03:07:09;;;;;;;1.58;1.48;;;15.70;92.20;;;;;;2012143;28;20178;-80
2021/12/31 03:08:10;;;;;;;2.75;1.50;;;15.70;92.40;;;;;;2012413;28;20176;-81
2021/12/31 03:09:10;;;;;;;2.50;1.45;;;15.60;92.40;;;;;;2005215;28;20200;-81
2021/12/31 03:10:11;;;;;;;1.30;1.20;;;15.60;92.30;;;;;;2005235;28;20181;-81
2021/12/31 03:11:10;;;;;;;2.65;1.60;;;15.70;92.50;;;;;;2005207;28;20172;-79
2021/12/31 03:12:10;;;;;;;1.30;1.10;;;15.60;92.00;;;;;;2004905;28;20667;-80
2021/12/31 03:13:09;;;;;;;1.30;1.20;;;15.70;91.70;;;;;;2005057;28;20651;-80
2021/12/31 03:14:09;;;;;;;3.17;1.53;;;15.70;92.00;;;;;;2005252;28;20196;-80
2021/12/31 03:15:09;;;;;;;1.55;1.42;;;15.70;92.00;;;;;;2004380;28;20427;-81
2021/12/31 03:16:08;;;;;;;4.05;1.38;;;15.70;90.90;;;;;;2004410;28;20177;-80
2021/12/31 03:17:07;;;;;;;1.50;1.13;;;15.70;91.30;;;;;;2005648;28;20207;-80
2021/12/31 03:18:07;;;;;;;1.98;1.40;;;15.60;91.10;;;;;;2004983;28;20177;-80
2021/12/31 03:19:05;;;;;;;3.00;1.33;;;15.60;92.00;;;;;;2004789;28;20165;-80
2021/12/31 03:20:13;;;;;;;2.17;1.40;;;15.60;91.00;;;;;;2005288;28;20264;-80
2021/12/31 03:21:20;;;;;;;2.92;1.58;;;15.70;90.80;;;;;;2005328;28;20162;-80
2021/12/31 03:22:20;;;;;;;1.98;1.50;;;15.60;91.10;;;;;;2013380;28;20234;-80
2021/12/31 03:23:18;;;;;;;3.17;1.52;;;15.60;91.80;;;;;;2012801;28;20172;-81
2021/12/31 03:24:17;;;;;;;1.33;1.10;;;15.60;90.80;;;;;;2005391;28;20169;-81
2021/12/31 03:25:15;;;;;;;3.17;1.10;;;15.60;91.70;;;;;;2005208;28;20265;-81
2021/12/31 03:26:14;;;;;;;2.33;1.30;;;15.70;91.50;;;;;;2005037;28;20181;-81
2021/12/31 03:27:13;;;;;;;1.33;1.20;;;15.60;92.40;;;;;;2004612;28;20540;-81
2021/12/31 03:28:11;;;;;;;4.50;1.23;;;15.70;91.10;;;;;;2004598;28;20487;-81
2021/12/31 03:29:10;;;;;;;1.77;1.40;;;15.60;92.10;;;;;;2004007;28;20197;-81
2021/12/31 03:30:13;;;;;;;1.57;1.47;;;15.60;92.00;;;;;;2004530;28;20648;-83
2021/12/31 03:31:12;;;;;;;1.73;1.50;;;15.70;92.20;;;;;;2004324;28;20173;-80
2021/12/31 03:32:10;;;;;;;1.40;1.30;;;15.60;92.00;;;;;;2004664;28;20177;-80
2021/12/31 03:33:09;;;;;;;2.23;1.40;;;15.70;92.10;;;;;;2004820;28;20173;-81
2021/12/31 03:34:10;;;;;;;2.20;1.30;;;15.60;92.00;;;;;;2005142;28;20185;-80
2021/12/31 03:35:08;;;;;;;1.90;1.45;;;15.70;92.30;;;;;;2004428;28;20239;-81
2021/12/31 03:36:07;;;;;;;1.50;1.40;;;15.70;92.20;;;;;;2004423;28;20173;-80
2021/12/31 03:37:05;;;;;;;1.57;1.20;;;15.70;91.90;;;;;;2004997;28;20179;-80
2021/12/31 03:38:04;;;;;;;1.77;1.40;;;15.70;92.00;;;;;;2004203;28;20698;-80
2021/12/31 03:39:03;;;;;;;2.33;1.37;;;15.60;92.10;;;;;;2004431;28;20172;-80
2021/12/31 03:40:02;;;;;;;1.95;1.27;;;15.60;92.70;;;;;;2004808;28;20239;-80
2021/12/31 03:41:01;;;;;;;2.03;1.40;;;15.70;92.80;;;;;;2012287;28;20204;-80
2021/12/31 03:41:59;;;;;;;1.40;1.23;;;15.70;91.90;;;;;;2012112;28;20743;-80
2021/12/31 03:42:59;;;;;;;1.53;1.10;;;15.60;92.00;;;;;;2005471;28;20177;-80
2021/12/31 03:43:57;;;;;;;1.83;1.17;;;15.60;92.50;;;;;;2004965;28;20183;-81
2021/12/31 03:44:56;;;;;;;1.50;1.30;;;15.70;92.80;;;;;;2004697;28;20546;-80
2021/12/31 03:45:54;;;;;;;2.20;1.40;;;15.60;91.80;;;;;;2004723;28;20200;-80
2021/12/31 03:46:53;;;;;;;2.37;1.50;;;15.60;92.40;;;;;;2004719;28;20189;-81
2021/12/31 03:47:52;;;;;;;1.20;1.10;;;15.70;92.30;;;;;;2004827;28;20702;-81
2021/12/31 03:48:51;;;;;;;1.80;1.15;;;15.60;93.00;;;;;;2004651;28;20431;-81
2021/12/31 03:49:49;;;;;;;1.77;1.47;;;15.60;92.20;;;;;;2004858;28;20185;-81
2021/12/31 03:50:48;;;;;;;1.43;1.13;;;15.60;92.50;;;;;;2004906;28;20171;-80
2021/12/31 03:51:47;;;;;;;2.40;1.50;;;15.60;92.30;;;;;;2004272;28;20184;-81
2021/12/31 03:52:46;;;;;;;3.20;1.70;;;15.60;92.50;;;;;;2004740;28;20653;-81
2021/12/31 03:53:44;;;;;;;1.70;1.30;;;15.70;91.40;;;;;;2007600;28;20180;-80
2021/12/31 03:54:44;;;;;;;1.80;1.53;;;15.60;92.50;;;;;;2011479;28;20533;-79
2021/12/31 03:55:42;;;;;;;3.45;1.40;;;15.70;93.20;;;;;;2011706;28;20177;-81
2021/12/31 03:56:41;;;;;;;1.50;1.40;;;15.70;92.20;;;;;;2007028;28;20556;-81
2021/12/31 03:57:41;;;;;;;2.07;1.63;;;15.60;92.00;;;;;;2005131;28;20173;-80
2021/12/31 03:58:40;;;;;;;1.75;1.23;;;15.70;92.00;;;;;;2005085;28;20534;-80
2021/12/31 03:59:38;;;;;;;1.50;1.20;;;15.60;90.30;;;;;;2005217;28;20181;-81
2021/12/31 04:00:37;;;;;;;1.50;1.40;;;15.70;90.20;;;;;;2004880;28;20181;-80
2021/12/31 04:01:35;;;;;;;3.63;1.67;;;15.60;90.40;;;;;;2005291;28;20178;-80
2021/12/31 04:02:35;;;;;;;1.70;1.27;;;15.60;90.80;;;;;;2004797;28;20515;-80
2021/12/31 04:03:33;;;;;;;1.90;1.40;;;15.60;90.40;;;;;;2004162;28;20181;-80
2021/12/31 04:04:32;;;;;;;1.43;1.23;;;15.60;91.10;;;;;;2004587;28;20209;-80
2021/12/31 04:05:30;;;;;;;3.70;2.17;;;15.70;91.20;;;;;;2004914;28;20193;-81
2021/12/31 04:06:29;;;;;;;1.40;1.27;;;15.70;91.40;;;;;;2004711;28;20256;-80
2021/12/31 04:07:27;;;;;;;1.77;1.40;;;15.70;90.70;;;;;;2004681;28;20204;-80
2021/12/31 04:08:26;;;;;;;2.17;1.60;;;15.70;91.50;;;;;;2004899;28;20205;-80
2021/12/31 04:09:24;;;;;;;5.13;1.40;;;15.60;91.00;;;;;;2004772;28;20184;-80
2021/12/31 04:10:25;;;;;;;1.40;1.30;;;15.70;91.10;;;;;;2004735;28;20177;-81
2021/12/31 04:11:24;;;;;;;1.50;1.40;;;15.60;90.60;;;;;;2004902;28;20231;-80
2021/12/31 04:12:24;;;;;;;1.73;1.37;;;15.70;91.50;;;;;;2004807;28;20312;-80
2021/12/31 04:13:22;;;;;;;1.90;1.30;;;15.60;91.60;;;;;;2004155;28;20177;-81
2021/12/31 04:14:22;;;;;;;1.23;1.13;;;15.70;91.60;;;;;;2004378;28;20605;-81
2021/12/31 04:15:22;;;;;;;1.42;1.23;;;15.70;92.50;;;;;;2005129;28;20165;-81
2021/12/31 04:16:21;;;;;;;1.67;1.40;;;15.70;92.00;;;;;;2004670;28;20189;-80
2021/12/31 04:17:20;;;;;;;1.65;1.13;;;15.70;92.10;;;;;;2004783;28;20328;-80
2021/12/31 04:18:18;;;;;;;1.50;1.40;;;15.70;91.50;;;;;;2004740;28;20177;-81
2021/12/31 04:19:17;;;;;;;1.80;1.43;;;15.60;90.80;;;;;;2004537;28;20180;-79
2021/12/31 04:20:21;;;;;;;1.00;0.90;;;15.70;92.20;;;;;;2004520;28;20173;-80
2021/12/31 04:21:22;;;;;;;2.75;1.20;;;15.60;91.90;;;;;;2004293;28;20170;-79
2021/12/31 04:22:23;;;;;;;1.40;1.20;;;15.70;92.00;;;;;;2004069;28;20578;-79
2021/12/31 04:23:30;;;;;;;2.35;1.40;;;15.60;91.80;;;;;;2003798;28;20538;-80
2021/12/31 04:25:42;;;;;;;1.30;1.20;;;15.70;92.60;;;;;;2004608;28;20162;-79
2021/12/31 04:26:41;;;;;;;1.10;1.00;;;15.70;93.10;;;;;;2004518;28;20197;-80
2021/12/31 04:27:40;;;;;;;2.47;1.70;;;15.70;92.10;;;;;;2004739;28;20225;-79
2021/12/31 04:28:39;;;;;;;1.70;1.33;;;15.70;92.60;;;;;;2004573;28;20264;-80
2021/12/31 04:29:38;;;;;;;1.23;1.10;;;15.70;92.30;;;;;;2004916;28;20473;-80
2021/12/31 04:30:36;;;;;;;3.70;1.30;;;15.70;92.80;;;;;;2004633;28;20180;-80
2021/12/31 04:31:35;;;;;;;2.80;1.50;;;15.70;92.10;;;;;;2005173;28;20169;-80
2021/12/31 04:32:34;;;;;;;1.90;1.43;;;15.70;91.50;;;;;;2005468;28;20581;-80
2021/12/31 04:33:33;;;;;;;1.87;1.30;;;15.70;91.30;;;;;;2005914;28;20169;-80
2021/12/31 04:34:32;;;;;;;2.70;1.50;;;15.70;92.40;;;;;;2005974;28;20253;-80
2021/12/31 04:35:30;;;;;;;1.70;1.35;;;15.70;91.00;;;;;;2005850;28;20173;-80
2021/12/31 04:36:29;;;;;;;1.73;1.30;;;15.70;92.70;;;;;;2006031;28;20340;-81
2021/12/31 04:37:27;;;;;;;2.23;1.57;;;15.60;92.00;;;;;;2006085;28;20169;-80
2021/12/31 04:38:26;;;;;;;1.60;1.30;;;15.70;92.10;;;;;;2006064;28;20176;-80
2021/12/31 04:39:25;;;;;;;1.30;1.20;;;15.70;90.90;;;;;;2006185;28;20223;-80
2021/12/31 04:40:23;;;;;;;5.03;1.20;;;15.70;90.70;;;;;;2006117;28;20175;-80
2021/12/31 04:41:22;;;;;;;1.77;1.23;;;15.70;91.20;;;;;;2005893;28;20173;-80
2021/12/31 04:42:20;;;;;;;2.13;1.43;;;15.70;90.70;;;;;;2005190;28;20296;-79
2021/12/31 04:43:19;;;;;;;1.30;1.10;;;15.70;90.10;;;;;;2005207;28;20526;-80
2021/12/31 04:44:17;;;;;;;3.47;1.63;;;15.70;90.60;;;;;;2005911;28;20173;-81
2021/12/31 04:45:17;;;;;;;1.40;1.10;;;15.70;90.80;;;;;;2005729;28;20181;-81
2021/12/31 04:46:16;;;;;;;2.20;1.23;;;15.70;91.20;;;;;;2005865;28;20259;-81
2021/12/31 04:47:14;;;;;;;2.77;1.70;;;15.70;90.60;;;;;;2005700;28;20173;-81
2021/12/31 04:48:13;;;;;;;2.90;1.50;;;15.70;91.40;;;;;;2006118;28;20236;-80
2021/12/31 04:49:12;;;;;;;1.97;1.33;;;15.70;90.70;;;;;;2005319;28;20185;-79
2021/12/31 04:50:10;;;;;;;1.60;1.40;;;15.70;90.80;;;;;;1997480;28;20456;-80
2021/12/31 04:51:09;;;;;;;1.40;1.10;;;15.60;91.00;;;;;;2004831;28;20177;-79
2021/12/31 04:52:08;;;;;;;4.20;1.37;;;15.70;90.80;;;;;;2005699;28;20412;-81
2021/12/31 04:53:07;;;;;;;2.20;1.30;;;15.70;90.50;;;;;;2006006;28;20280;-81
2021/12/31 04:54:07;;;;;;;1.73;1.60;;;15.70;90.80;;;;;;2005780;28;20173;-80
2021/12/31 04:55:07;;;;;;;2.22;1.58;;;15.70;90.70;;;;;;2005239;28;20190;-80
2021/12/31 04:56:06;;;;;;;2.28;1.30;;;15.70;91.40;;;;;;2005272;28;20177;-81
2021/12/31 04:57:05;;;;;;;2.30;1.77;;;15.70;91.10;;;;;;2006039;28;20633;-80
2021/12/31 04:58:05;;;;;;;2.08;1.60;;;15.60;91.30;;;;;;2006020;28;20176;-79
2021/12/31 04:59:04;;;;;;;1.85;1.20;;;15.60;91.20;;;;;;2005728;28;20215;-80
2021/12/31 05:00:05;;;;;;;1.20;1.07;;;15.70;91.40;;;;;;2005462;28;20703;-80
2021/12/31 05:01:03;;;;;;;1.33;1.13;;;15.70;92.20;;;;;;1997263;28;20427;-80
2021/12/31 05:02:02;;;;;;;1.60;1.20;;;15.80;91.50;;;;;;2005263;28;20251;-81
2021/12/31 05:03:08;;;;;;;2.00;1.50;;;15.70;91.00;;;;;;2005910;28;20177;-80
2021/12/31 05:04:06;;;;;;;1.80;1.48;;;15.70;92.10;;;;;;2006145;28;20165;-80
2021/12/31 05:05:05;;;;;;;3.13;1.60;;;15.70;91.90;;;;;;2006121;28;20177;-80
2021/12/31 05:06:04;;;;;;;1.57;1.20;;;15.70;92.30;;;;;;2005596;28;20204;-80
2021/12/31 05:07:04;;;;;;;1.27;1.17;;;15.60;91.50;;;;;;2006078;28;20422;-80
2021/12/31 05:08:04;;;;;;;1.42;0.90;;;15.70;91.70;;;;;;1997458;28;20300;-80
2021/12/31 05:09:02;;;;;;;1.92;1.30;;;15.70;92.70;;;;;;1997345;28;20181;-81
2021/12/31 05:10:03;;;;;;;3.30;1.50;;;15.70;91.20;;;;;;2005138;28;20172;-82
2021/12/31 05:11:01;;;;;;;1.63;1.35;;;15.70;91.90;;;;;;2005858;28;20181;-82
2021/12/31 05:12:04;;;;;;;2.03;1.50;;;15.70;91.70;;;;;;2005764;28;20641;-80
2021/12/31 05:13:03;;;;;;;1.25;1.15;;;15.70;92.30;;;;;;2005656;28;20582;-80
2021/12/31 05:14:04;;;;;;;1.60;1.10;;;15.70;92.20;;;;;;2005126;28;20722;-82
2021/12/31 05:15:06;;;;;;;1.83;1.50;;;15.70;92.30;;;;;;2005092;28;20173;-79
2021/12/31 05:16:06;;;;;;;1.50;1.40;;;15.80;91.80;;;;;;2005006;28;20173;-79